Time;durP1;ratioP1;P1;durP2;ratioP2;P2;SDS_P1;SDS_P2;PMS_P1;PMS_P2;Temp;Humidity;BMP_temperature;BMP_pressure;BME280_temperature;BME280_humidity;BME280_pressure;Samples;Min_cycle;Max_cycle;Signal;HPM_P1;HPM_P2
2021/12/12 00:00:29;;;;;;;;;;;;;;;15.72;61.35;101564.31;1053392;28;834;-62
2021/12/12 00:01:19;;;;;;;;;;;;;;;15.71;61.19;101561.75;1053352;28;677;-62
2021/12/12 00:02:18;;;;;;;;;;;;;;;15.70;61.02;101554.66;1053544;28;696;-62
2021/12/12 00:03:15;;;;;;;;;;;;;;;15.70;61.37;101562.72;1053451;28;622;-62
2021/12/12 00:04:12;;;;;;;;;;;;;;;15.69;61.41;101563.69;1053443;28;699;-62
2021/12/12 00:05:07;;;;;;;;;;;;;;;15.68;61.12;101568.22;1053397;28;672;-62
2021/12/12 00:05:58;;;;;;;;;;;;;;;15.68;61.49;101562.84;1053970;28;1955;-63
2021/12/12 00:06:48;;;;;;;;;;;;;;;15.67;61.63;101566.50;1053610;28;660;-63
2021/12/12 00:07:38;;;;;;;;;;;;;;;15.67;61.22;101569.19;1053646;28;761;-62
2021/12/12 00:08:29;;;;;;;;;;;;;;;15.66;60.94;101575.53;1049651;28;652;-63
2021/12/12 00:09:19;;;;;;;;;;;;;;;15.65;61.54;101568.44;1049069;28;667;-63
2021/12/12 00:10:10;;;;;;;;;;;;;;;15.65;61.49;101565.75;1052596;28;1087;-64
2021/12/12 00:11:00;;;;;;;;;;;;;;;15.64;61.10;101577.47;1053516;28;658;-63
2021/12/12 00:11:50;;;;;;;;;;;;;;;15.63;61.38;101571.22;1053601;28;751;-63
2021/12/12 00:12:41;;;;;;;;;;;;;;;15.63;61.82;101563.16;1053836;28;1868;-63
2021/12/12 00:13:31;;;;;;;;;;;;;;;15.63;61.34;101570.38;1052998;28;649;-64
2021/12/12 00:14:22;;;;;;;;;;;;;;;15.61;61.11;101562.41;1052475;28;700;-65
2021/12/12 00:15:12;;;;;;;;;;;;;;;15.61;61.02;101564.25;1052677;28;811;-65
2021/12/12 00:16:02;;;;;;;;;;;;;;;15.61;61.75;101565.09;1052711;28;1092;-65
2021/12/12 00:16:53;;;;;;;;;;;;;;;15.61;61.06;101559.72;1053020;28;692;-66
2021/12/12 00:17:44;;;;;;;;;;;;;;;15.61;61.36;101558.88;1053143;28;692;-64
2021/12/12 00:18:34;;;;;;;;;;;;;;;15.60;61.38;101562.53;1053027;28;664;-64
2021/12/12 00:19:25;;;;;;;;;;;;;;;15.58;61.05;101560.00;1052893;28;636;-65
2021/12/12 00:20:15;;;;;;;;;;;;;;;15.57;61.25;101550.22;1049561;28;799;-64
2021/12/12 00:21:05;;;;;;;;;;;;;;;15.57;61.61;101562.78;1051396;28;1698;-64
2021/12/12 00:21:56;;;;;;;;;;;;;;;15.57;61.30;101565.47;1057264;28;850;-65
2021/12/12 00:22:46;;;;;;;;;;;;;;;15.56;61.44;101559.25;1055982;28;1840;-64
2021/12/12 00:23:37;;;;;;;;;;;;;;;15.56;61.72;101561.94;1053048;28;659;-64
2021/12/12 00:24:27;;;;;;;;;;;;;;;15.56;61.43;101556.56;1052979;28;743;-64
2021/12/12 00:25:18;;;;;;;;;;;;;;;15.57;61.70;101554.72;1052564;28;672;-64
2021/12/12 00:26:08;;;;;;;;;;;;;;;15.56;61.09;101548.50;1052621;28;1918;-63
2021/12/12 00:26:59;;;;;;;;;;;;;;;15.55;61.51;101548.56;1052769;28;755;-64
2021/12/12 00:27:49;;;;;;;;;;;;;;;15.54;61.38;101546.84;1053055;28;692;-64
2021/12/12 00:28:40;;;;;;;;;;;;;;;15.54;61.33;101549.53;1052628;28;759;-64
2021/12/12 00:29:30;;;;;;;;;;;;;;;15.53;61.60;101548.69;1053759;28;669;-64
2021/12/12 00:30:20;;;;;;;;;;;;;;;15.52;61.28;101546.97;1053227;28;782;-64
2021/12/12 00:31:11;;;;;;;;;;;;;;;15.51;61.65;101545.25;1053187;28;700;-64
2021/12/12 00:32:01;;;;;;;;;;;;;;;15.51;61.31;101539.88;1053076;28;684;-64
2021/12/12 00:32:53;;;;;;;;;;;;;;;15.50;61.54;101543.53;1054565;28;1856;-64
2021/12/12 00:33:43;;;;;;;;;;;;;;;15.50;61.28;101543.53;1057088;28;686;-64
2021/12/12 00:34:35;;;;;;;;;;;;;;;15.50;61.44;101543.53;1057146;28;772;-61
2021/12/12 00:35:25;;;;;;;;;;;;;;;15.49;61.31;101544.50;1057308;28;649;-63
2021/12/12 00:36:19;;;;;;;;;;;;;;;15.49;61.27;101541.81;1058190;28;742;-62
2021/12/12 00:37:09;;;;;;;;;;;;;;;15.48;61.18;101547.31;1057012;28;708;-63
2021/12/12 00:37:59;;;;;;;;;;;;;;;15.47;61.48;101542.91;1057219;28;719;-63
2021/12/12 00:38:50;;;;;;;;;;;;;;;15.46;60.70;101538.50;1057049;28;772;-62
2021/12/12 00:39:40;;;;;;;;;;;;;;;15.45;61.42;101539.47;1057085;28;716;-62
2021/12/12 00:40:31;;;;;;;;;;;;;;;15.46;61.52;101543.88;1056918;28;801;-62
2021/12/12 00:41:21;;;;;;;;;;;;;;;15.45;61.04;101539.47;1054452;28;1861;-64
2021/12/12 00:42:12;;;;;;;;;;;;;;;15.44;61.44;101537.75;1053141;28;735;-63
2021/12/12 00:43:02;;;;;;;;;;;;;;;15.43;61.71;101542.25;1052815;28;754;-63
2021/12/12 00:43:52;;;;;;;;;;;;;;;15.43;61.11;101542.25;1052586;28;807;-63
2021/12/12 00:44:43;;;;;;;;;;;;;;;15.42;61.18;101535.19;1052454;28;696;-63
2021/12/12 00:45:33;;;;;;;;;;;;;;;15.42;61.25;101543.22;1053180;28;656;-63
2021/12/12 00:46:24;;;;;;;;;;;;;;;15.42;61.72;101539.69;1052848;28;723;-63
2021/12/12 00:47:14;;;;;;;;;;;;;;;15.43;61.40;101541.41;1053021;28;966;-63
2021/12/12 00:48:04;;;;;;;;;;;;;;;15.42;61.18;101540.53;1053035;28;676;-64
2021/12/12 00:48:55;;;;;;;;;;;;;;;15.42;61.16;101537.00;1052827;28;680;-63
2021/12/12 00:49:45;;;;;;;;;;;;;;;15.41;61.46;101530.78;1053542;28;1921;-64
2021/12/12 00:50:36;;;;;;;;;;;;;;;15.41;61.74;101528.09;1052296;28;716;-64
2021/12/12 00:51:26;;;;;;;;;;;;;;;15.40;61.81;101526.41;1053131;28;774;-64
2021/12/12 00:52:16;;;;;;;;;;;;;;;15.40;61.30;101530.91;1053336;28;660;-64
2021/12/12 00:53:07;;;;;;;;;;;;;;;15.39;61.87;101535.44;1053002;28;691;-64
2021/12/12 00:53:57;;;;;;;;;;;;;;;15.38;61.33;101524.81;1052871;28;707;-63
2021/12/12 00:54:48;;;;;;;;;;;;;;;15.38;61.80;101530.16;1052570;28;932;-64
2021/12/12 00:55:38;;;;;;;;;;;;;;;15.38;61.87;101535.53;1052794;28;750;-64
2021/12/12 00:56:29;;;;;;;;;;;;;;;15.38;61.24;101533.72;1053061;28;678;-65
2021/12/12 00:57:19;;;;;;;;;;;;;;;15.37;61.72;101528.44;1052729;28;692;-64
2021/12/12 00:58:10;;;;;;;;;;;;;;;15.37;61.90;101529.31;1055577;28;1914;-64
2021/12/12 00:59:00;;;;;;;;;;;;;;;15.36;61.70;101532.97;1057156;28;730;-64
2021/12/12 00:59:51;;;;;;;;;;;;;;;15.36;61.31;101530.28;1057978;28;996;-65
2021/12/12 01:00:43;;;;;;;;;;;;;;;15.36;61.64;101527.59;1056986;28;659;-65
2021/12/12 01:01:35;;;;;;;;;;;;;;;15.35;61.76;101525.88;1056851;28;710;-65
2021/12/12 01:02:26;;;;;;;;;;;;;;;15.35;61.92;101528.56;1057078;28;690;-64
2021/12/12 01:03:16;;;;;;;;;;;;;;;15.34;61.86;101529.53;1056947;28;670;-65
2021/12/12 01:04:07;;;;;;;;;;;;;;;15.32;62.19;101526.09;1057218;28;754;-64
2021/12/12 01:04:57;;;;;;;;;;;;;;;15.32;62.04;101523.41;1057023;28;613;-64
2021/12/12 01:05:47;;;;;;;;;;;;;;;15.30;61.59;101525.34;1057115;28;770;-64
2021/12/12 01:06:38;;;;;;;;;;;;;;;15.29;61.97;101521.81;1055993;28;773;-64
2021/12/12 01:07:28;;;;;;;;;;;;;;;15.30;62.10;101522.66;1057876;28;679;-64
2021/12/12 01:08:19;;;;;;;;;;;;;;;15.30;61.48;101519.97;1054148;28;1808;-64
2021/12/12 01:09:09;;;;;;;;;;;;;;;15.30;61.77;101525.34;1052875;28;648;-64
2021/12/12 01:10:00;;;;;;;;;;;;;;;15.29;61.94;101521.81;1052840;28;823;-64
2021/12/12 01:10:50;;;;;;;;;;;;;;;15.29;61.55;101535.22;1052404;28;713;-64
2021/12/12 01:11:40;;;;;;;;;;;;;;;15.29;62.04;101520.94;1052605;28;689;-63
2021/12/12 01:12:31;;;;;;;;;;;;;;;15.28;61.60;101520.09;1052710;28;857;-64
2021/12/12 01:13:21;;;;;;;;;;;;;;;15.28;61.61;101529.97;1052421;28;734;-64
2021/12/12 01:14:12;;;;;;;;;;;;;;;15.28;62.05;101527.28;1052998;28;804;-64
2021/12/12 01:15:02;;;;;;;;;;;;;;;15.28;61.96;101524.59;1052373;28;1310;-64
2021/12/12 01:15:53;;;;;;;;;;;;;;;15.27;62.08;101533.63;1053135;28;628;-63
2021/12/12 01:16:43;;;;;;;;;;;;;;;15.26;62.17;101527.41;1052771;28;692;-64
2021/12/12 01:17:37;;;;;;;;;;;;;;;15.26;61.94;101526.53;1052828;28;799;-64
2021/12/12 01:18:28;;;;;;;;;;;;;;;15.25;62.34;101523.00;1053581;28;802;-64
2021/12/12 01:19:19;;;;;;;;;;;;;;;15.24;61.56;101523.09;1053264;28;708;-63
2021/12/12 01:20:10;;;;;;;;;;;;;;;15.23;61.88;101529.44;1056719;28;1884;-63
2021/12/12 01:21:00;;;;;;;;;;;;;;;15.23;62.14;101533.00;1055847;28;1405;-64
2021/12/12 01:21:51;;;;;;;;;;;;;;;15.23;61.87;101524.06;1054458;28;682;-63
2021/12/12 01:22:41;;;;;;;;;;;;;;;15.23;61.86;101530.31;1053088;28;763;-64
2021/12/12 01:23:32;;;;;;;;;;;;;;;15.22;61.75;101523.25;1053186;28;715;-63
2021/12/12 01:24:24;;;;;;;;;;;;;;;15.21;61.50;101524.22;1053394;28;818;-63
2021/12/12 01:25:14;;;;;;;;;;;;;;;15.22;62.13;101520.56;1053409;28;720;-63
2021/12/12 01:26:05;;;;;;;;;;;;;;;15.21;61.98;101523.34;1053250;28;1976;-63
2021/12/12 01:26:55;;;;;;;;;;;;;;;15.19;61.90;101523.47;1053359;28;721;-64
2021/12/12 01:27:46;;;;;;;;;;;;;;;15.19;62.04;101527.97;1053395;28;704;-64
2021/12/12 01:28:36;;;;;;;;;;;;;;;15.18;61.63;101529.81;1053971;28;723;-63
2021/12/12 01:29:26;;;;;;;;;;;;;;;15.18;62.36;101531.63;1053805;28;727;-63
2021/12/12 01:30:17;;;;;;;;;;;;;;;15.18;61.44;101520.91;1053044;28;644;-62
2021/12/12 01:31:08;;;;;;;;;;;;;;;15.17;61.62;101521.88;1056047;28;845;-63
2021/12/12 01:32:00;;;;;;;;;;;;;;;15.17;61.96;101516.50;1054004;28;632;-63
2021/12/12 01:32:50;;;;;;;;;;;;;;;15.16;61.99;101520.16;1053738;28;666;-63
2021/12/12 01:33:41;;;;;;;;;;;;;;;15.17;62.02;101519.19;1051747;28;760;-62
2021/12/12 01:34:32;;;;;;;;;;;;;;;15.15;61.61;101529.16;1052290;28;660;-63
2021/12/12 01:35:23;;;;;;;;;;;;;;;15.15;62.25;101518.44;1053599;28;754;-63
2021/12/12 01:36:22;;;;;;;;;;;;;;;15.14;61.59;101516.72;1051800;28;671;-63
2021/12/12 01:37:34;;;;;;;;;;;;;;;15.12;61.82;101516.81;1053907;28;859;-63
2021/12/12 01:39:32;;;;;;;;;;;;;;;15.13;62.38;101523.06;1052690;28;745;-63
2021/12/12 01:40:23;;;;;;;;;;;;;;;15.13;61.95;101528.41;1053321;28;695;-63
2021/12/12 01:41:13;;;;;;;;;;;;;;;15.13;62.05;101523.06;1053312;28;821;-63
2021/12/12 01:42:04;;;;;;;;;;;;;;;15.12;61.62;101524.88;1053283;28;759;-63
2021/12/12 01:42:54;;;;;;;;;;;;;;;15.13;62.03;101525.72;1053024;28;738;-63
2021/12/12 01:43:45;;;;;;;;;;;;;;;15.14;61.59;101532.81;1053024;28;2234;-63
2021/12/12 01:44:35;;;;;;;;;;;;;;;15.13;61.54;101523.06;1052593;28;656;-64
2021/12/12 01:45:26;;;;;;;;;;;;;;;15.12;62.09;101522.19;1052323;28;759;-65
2021/12/12 01:46:16;;;;;;;;;;;;;;;15.12;62.30;101521.34;1052664;28;1890;-60
2021/12/12 01:47:06;;;;;;;;;;;;;;;15.11;62.05;101522.31;1052859;28;755;-63
2021/12/12 01:47:57;;;;;;;;;;;;;;;15.11;61.98;101524.97;1053164;28;806;-62
2021/12/12 01:48:47;;;;;;;;;;;;;;;15.10;62.33;101524.13;1052871;28;663;-63
2021/12/12 01:49:38;;;;;;;;;;;;;;;15.11;61.83;101524.97;1053241;28;817;-63
2021/12/12 01:50:29;;;;;;;;;;;;;;;15.09;61.85;101532.28;1052638;28;688;-63
2021/12/12 01:51:20;;;;;;;;;;;;;;;15.11;62.26;101535.72;1053318;28;652;-64
2021/12/12 01:52:10;;;;;;;;;;;;;;;15.10;61.97;101531.31;1052793;28;755;-64
2021/12/12 01:53:01;;;;;;;;;;;;;;;15.09;61.91;101518.88;1052612;28;708;-64
2021/12/12 01:53:51;;;;;;;;;;;;;;;15.09;62.16;101521.56;1049478;28;905;-64
2021/12/12 01:54:44;;;;;;;;;;;;;;;15.08;62.30;101519.84;1053008;28;748;-64
2021/12/12 01:55:34;;;;;;;;;;;;;;;15.08;62.25;101523.38;1052916;28;766;-64
2021/12/12 01:56:25;;;;;;;;;;;;;;;15.07;62.13;101518.97;1052860;28;715;-64
2021/12/12 01:57:16;;;;;;;;;;;;;;;15.07;62.30;101518.97;1053474;28;723;-64
2021/12/12 01:58:06;;;;;;;;;;;;;;;15.06;61.93;101517.25;1053033;28;829;-64
2021/12/12 01:58:58;;;;;;;;;;;;;;;15.06;61.88;101524.47;1053605;28;719;-63
2021/12/12 01:59:49;;;;;;;;;;;;;;;15.05;62.38;101520.09;1053888;28;976;-63
2021/12/12 02:00:39;;;;;;;;;;;;;;;15.05;62.38;101517.41;1053675;28;672;-63
2021/12/12 02:01:30;;;;;;;;;;;;;;;15.05;62.06;101520.09;1054000;28;719;-63
2021/12/12 02:02:20;;;;;;;;;;;;;;;15.04;62.03;101519.22;1053392;28;714;-63
2021/12/12 02:03:11;;;;;;;;;;;;;;;15.03;62.50;101520.19;1053607;28;661;-63
2021/12/12 02:04:01;;;;;;;;;;;;;;;15.04;62.49;101519.22;1054097;28;672;-63
2021/12/12 02:04:51;;;;;;;;;;;;;;;15.04;62.28;101511.19;1053618;28;723;-63
2021/12/12 02:05:42;;;;;;;;;;;;;;;15.03;62.13;101501.41;1055481;28;2027;-63
2021/12/12 02:06:32;;;;;;;;;;;;;;;15.03;62.01;101509.47;1057631;28;849;-63
2021/12/12 02:07:24;;;;;;;;;;;;;;;15.03;62.22;101512.16;1057803;28;663;-63
2021/12/12 02:08:14;;;;;;;;;;;;;;;15.02;62.11;101498.84;1057605;28;668;-63
2021/12/12 02:09:05;;;;;;;;;;;;;;;15.02;62.11;101498.84;1057734;28;671;-63
2021/12/12 02:09:55;;;;;;;;;;;;;;;15.00;62.14;101498.94;1057678;28;646;-63
2021/12/12 02:10:46;;;;;;;;;;;;;;;15.00;62.55;101495.41;1057613;28;829;-63
2021/12/12 02:11:36;;;;;;;;;;;;;;;14.99;62.44;101496.38;1057674;28;696;-63
2021/12/12 02:12:26;;;;;;;;;;;;;;;14.99;62.00;101496.38;1057706;28;700;-63
2021/12/12 02:13:17;;;;;;;;;;;;;;;14.99;62.16;101493.69;1057680;28;648;-63
2021/12/12 02:14:10;;;;;;;;;;;;;;;14.99;62.53;101501.72;1057690;28;692;-63
2021/12/12 02:15:00;;;;;;;;;;;;;;;14.97;61.87;101496.47;1057586;28;1312;-63
2021/12/12 02:15:51;;;;;;;;;;;;;;;14.98;62.38;101489.28;1056557;28;2074;-63
2021/12/12 02:16:41;;;;;;;;;;;;;;;14.98;62.02;101492.81;1058528;28;632;-63
2021/12/12 02:17:36;;;;;;;;;;;;;;;14.97;62.16;101490.25;1058856;28;667;-63
2021/12/12 02:18:31;;;;;;;;;;;;;;;14.98;61.98;101494.66;1057702;28;637;-63
2021/12/12 02:19:29;;;;;;;;;;;;;;;14.97;62.09;101480.38;1057614;28;709;-63
2021/12/12 02:20:30;;;;;;;;;;;;;;;14.98;61.98;101483.91;1056884;28;640;-64
2021/12/12 02:21:25;;;;;;;;;;;;;;;14.98;62.56;101489.28;1054531;28;1358;-64
2021/12/12 02:23:43;;;;;;;;;;;;;;;14.98;62.20;101491.97;1053358;28;924;-64
2021/12/12 02:35:08;;;;;;;;;;;;;;;14.94;62.49;101500.22;1054307;28;707;-64
2021/12/12 02:35:22;;;;;;;;;;;;;;;14.90;62.30;101498.75;1053499;28;566;-62
2021/12/12 02:36:13;;;;;;;;;;;;;;;14.90;61.96;101493.38;1053759;28;684;-61
2021/12/12 02:37:04;;;;;;;;;;;;;;;14.89;62.54;101494.34;1056957;28;720;-61
2021/12/12 02:37:54;;;;;;;;;;;;;;;14.87;62.07;101498.94;1057741;28;739;-64
2021/12/12 02:38:44;;;;;;;;;;;;;;;14.85;62.50;101490.19;1054126;28;655;-64
2021/12/12 02:39:35;;;;;;;;;;;;;;;14.84;61.83;101499.19;1053292;28;649;-63
2021/12/12 02:40:25;;;;;;;;;;;;;;;14.84;62.14;101488.47;1052791;28;664;-64
2021/12/12 02:41:16;;;;;;;;;;;;;;;14.84;62.35;101485.78;1056882;28;715;-63
2021/12/12 02:42:06;;;;;;;;;;;;;;;14.83;62.53;101492.13;1057727;28;800;-63
2021/12/12 02:42:56;;;;;;;;;;;;;;;14.83;62.13;101494.81;1054247;28;726;-63
2021/12/12 02:43:47;;;;;;;;;;;;;;;14.84;61.88;101490.28;1052939;28;1920;-61
2021/12/12 02:44:38;;;;;;;;;;;;;;;14.84;61.87;101499.19;1049966;28;856;-62
2021/12/12 02:45:31;;;;;;;;;;;;;;;14.85;62.48;101490.19;1054040;28;724;-63
2021/12/12 02:46:22;;;;;;;;;;;;;;;14.85;62.45;101486.66;1053590;28;1898;-62
2021/12/12 02:47:14;;;;;;;;;;;;;;;14.85;62.20;101492.88;1053635;28;706;-62
2021/12/12 02:48:06;;;;;;;;;;;;;;;14.84;62.00;101496.53;1053297;28;766;-62
2021/12/12 02:49:04;;;;;;;;;;;;;;;14.84;62.43;101483.09;1053850;28;662;-62
2021/12/12 02:50:07;;;;;;;;;;;;;;;14.83;62.50;101489.44;1053789;28;668;-62
2021/12/12 02:50:57;;;;;;;;;;;;;;;14.83;62.19;101483.22;1053682;28;673;-63
2021/12/12 02:51:48;;;;;;;;;;;;;;;14.83;62.55;101485.91;1053174;28;629;-63
2021/12/12 02:52:38;;;;;;;;;;;;;;;14.80;62.24;101484.28;1053337;28;737;-62
2021/12/12 02:53:29;;;;;;;;;;;;;;;14.80;62.11;101480.75;1053434;28;704;-62
2021/12/12 02:54:19;;;;;;;;;;;;;;;14.79;62.06;101479.88;1053214;28;765;-63
2021/12/12 02:55:10;;;;;;;;;;;;;;;14.78;62.32;101480.84;1053315;28;769;-62
2021/12/12 02:56:00;;;;;;;;;;;;;;;14.77;62.07;101479.13;1053297;28;629;-62
2021/12/12 02:56:50;;;;;;;;;;;;;;;14.77;62.49;101478.28;1053393;28;763;-62
2021/12/12 02:57:41;;;;;;;;;;;;;;;14.75;62.48;101473.03;1053127;28;626;-62
2021/12/12 02:58:31;;;;;;;;;;;;;;;14.77;62.15;101483.66;1053275;28;761;-62
2021/12/12 02:59:22;;;;;;;;;;;;;;;14.77;62.58;101473.78;1052675;28;783;-62
2021/12/12 03:00:12;;;;;;;;;;;;;;;14.78;62.34;101474.63;1054084;28;1298;-62
2021/12/12 03:01:03;;;;;;;;;;;;;;;14.78;61.96;101482.69;1054492;28;677;-62
2021/12/12 03:01:53;;;;;;;;;;;;;;;14.78;62.11;101466.56;1053228;28;621;-62
2021/12/12 03:02:46;;;;;;;;;;;;;;;14.78;61.98;101480.84;1053279;28;767;-62
2021/12/12 03:03:37;;;;;;;;;;;;;;;14.77;61.83;101473.78;1053134;28;676;-62
2021/12/12 03:04:27;;;;;;;;;;;;;;;14.77;62.41;101470.22;1054431;28;664;-61
2021/12/12 03:05:18;;;;;;;;;;;;;;;14.76;61.92;101466.69;1053111;28;727;-62
2021/12/12 03:06:08;;;;;;;;;;;;;;;14.76;62.48;101472.06;1053144;28;1968;-62
2021/12/12 03:06:59;;;;;;;;;;;;;;;14.75;61.97;101464.97;1053343;28;738;-62
2021/12/12 03:07:49;;;;;;;;;;;;;;;14.75;62.50;101470.34;1052797;28;2139;-62
2021/12/12 03:08:39;;;;;;;;;;;;;;;14.75;61.89;101469.47;1054405;28;682;-61
2021/12/12 03:09:30;;;;;;;;;;;;;;;14.74;62.52;101471.31;1052819;28;667;-62
2021/12/12 03:10:20;;;;;;;;;;;;;;;14.74;62.02;101467.75;1053240;28;682;-62
2021/12/12 03:11:11;;;;;;;;;;;;;;;14.73;62.69;101466.91;1053762;28;791;-62
2021/12/12 03:12:01;;;;;;;;;;;;;;;14.73;62.42;101466.03;1053169;28;786;-62
2021/12/12 03:12:52;;;;;;;;;;;;;;;14.72;62.20;101459.81;1053540;28;671;-62
2021/12/12 03:13:42;;;;;;;;;;;;;;;14.72;62.11;101470.56;1054415;28;671;-62
2021/12/12 03:14:33;;;;;;;;;;;;;;;14.73;62.03;101468.72;1054401;28;769;-62
2021/12/12 03:15:23;;;;;;;;;;;;;;;14.73;62.03;101466.91;1054407;28;715;-62
2021/12/12 03:16:13;;;;;;;;;;;;;;;14.73;62.45;101480.31;1053502;28;1325;-63
2021/12/12 03:17:04;;;;;;;;;;;;;;;14.72;62.50;101467.00;1054081;28;747;-62
2021/12/12 03:17:54;;;;;;;;;;;;;;;14.71;62.30;101467.97;1054464;28;645;-63
2021/12/12 03:18:45;;;;;;;;;;;;;;;14.71;62.14;101481.41;1054491;28;731;-62
2021/12/12 03:19:35;;;;;;;;;;;;;;;14.69;62.44;101484.19;1054318;28;825;-63
2021/12/12 03:20:26;;;;;;;;;;;;;;;14.69;62.50;101475.31;1054392;28;659;-62
2021/12/12 03:21:16;;;;;;;;;;;;;;;14.69;62.83;101486.88;1054384;28;1665;-63
2021/12/12 03:22:07;;;;;;;;;;;;;;;14.70;62.22;101477.00;1055724;28;1906;-62
2021/12/12 03:22:57;;;;;;;;;;;;;;;14.70;61.99;101469.81;1056460;28;628;-62
2021/12/12 03:23:48;;;;;;;;;;;;;;;14.71;62.51;101476.03;1057733;28;841;-62
2021/12/12 03:24:38;;;;;;;;;;;;;;;14.69;62.72;101481.50;1058338;28;667;-62
2021/12/12 03:25:28;;;;;;;;;;;;;;;14.69;62.78;101483.34;1057587;28;691;-62
2021/12/12 03:26:19;;;;;;;;;;;;;;;14.69;62.10;101469.94;1057577;28;1914;-62
2021/12/12 03:27:09;;;;;;;;;;;;;;;14.67;62.03;101471.88;1057298;28;641;-63
2021/12/12 03:28:00;;;;;;;;;;;;;;;14.66;62.63;101465.66;1056564;28;746;-63
2021/12/12 03:28:50;;;;;;;;;;;;;;;14.66;61.97;101472.84;1058410;28;627;-63
2021/12/12 03:29:40;;;;;;;;;;;;;;;14.66;62.81;101462.09;1058612;28;635;-63
2021/12/12 03:30:31;;;;;;;;;;;;;;;14.66;62.37;101473.69;1057238;28;731;-61
2021/12/12 03:31:21;;;;;;;;;;;;;;;14.65;61.91;101468.44;1057345;28;679;-62
2021/12/12 03:32:12;;;;;;;;;;;;;;;14.66;61.99;101471.00;1054293;28;1508;-62
2021/12/12 03:33:02;;;;;;;;;;;;;;;14.66;62.66;101472.84;1053634;28;609;-62
2021/12/12 03:33:53;;;;;;;;;;;;;;;14.61;61.91;101472.31;1053463;28;1980;-61
2021/12/12 03:34:43;;;;;;;;;;;;;;;14.59;61.84;101472.41;1053227;28;597;-62
2021/12/12 03:35:34;;;;;;;;;;;;;;;14.57;61.97;101467.16;1053851;28;700;-62
2021/12/12 03:36:24;;;;;;;;;;;;;;;14.56;62.60;101470.81;1053055;28;769;-61
2021/12/12 03:37:14;;;;;;;;;;;;;;;14.58;62.28;101473.38;1053184;28;712;-61
2021/12/12 03:38:05;;;;;;;;;;;;;;;14.58;61.95;101479.59;1054222;28;726;-63
2021/12/12 03:38:55;;;;;;;;;;;;;;;14.59;62.00;101477.78;1053209;28;780;-63
2021/12/12 03:39:46;;;;;;;;;;;;;;;14.58;62.11;101482.28;1053350;28;643;-62
2021/12/12 03:40:36;;;;;;;;;;;;;;;14.57;62.46;101477.88;1052812;28;777;-62
2021/12/12 03:41:27;;;;;;;;;;;;;;;14.57;62.03;101483.25;1052863;28;727;-62
2021/12/12 03:42:17;;;;;;;;;;;;;;;14.57;62.08;101472.53;1053586;28;688;-62
2021/12/12 03:43:07;;;;;;;;;;;;;;;14.57;62.21;101482.38;1052209;28;680;-61
2021/12/12 03:43:59;;;;;;;;;;;;;;;14.57;62.53;101479.72;1053772;28;645;-61
2021/12/12 03:44:50;;;;;;;;;;;;;;;14.57;62.34;101477.03;1053650;28;665;-62
2021/12/12 03:45:40;;;;;;;;;;;;;;;14.58;61.82;101478.75;1053710;28;676;-62
2021/12/12 03:46:31;;;;;;;;;;;;;;;14.57;62.54;101482.38;1053582;28;1899;-63
2021/12/12 03:47:21;;;;;;;;;;;;;;;14.56;62.05;101476.16;1053621;28;762;-62
2021/12/12 03:48:11;;;;;;;;;;;;;;;14.58;61.79;101481.44;1053652;28;676;-62
2021/12/12 03:49:02;;;;;;;;;;;;;;;14.57;62.40;101472.53;1053808;28;734;-64
2021/12/12 03:49:52;;;;;;;;;;;;;;;14.57;61.97;101471.66;1053411;28;1026;-62
2021/12/12 03:50:43;;;;;;;;;;;;;;;14.57;62.30;101477.88;1057812;28;756;-62
2021/12/12 03:51:33;;;;;;;;;;;;;;;14.57;61.97;101482.38;1057159;28;680;-63
2021/12/12 03:52:23;;;;;;;;;;;;;;;14.56;62.06;101478.84;1056785;28;676;-63
2021/12/12 03:53:14;;;;;;;;;;;;;;;14.55;62.54;101474.44;1057074;28;867;-63
2021/12/12 03:54:04;;;;;;;;;;;;;;;14.56;61.96;101469.94;1057207;28;621;-63
2021/12/12 03:54:58;;;;;;;;;;;;;;;14.55;61.80;101474.44;1057346;28;729;-64
2021/12/12 03:55:48;;;;;;;;;;;;;;;14.55;62.39;101481.63;1057145;28;649;-64
2021/12/12 03:56:38;;;;;;;;;;;;;;;14.55;62.04;101478.97;1057258;28;605;-65
2021/12/12 03:57:29;;;;;;;;;;;;;;;14.54;61.98;101472.72;1057335;28;636;-64
2021/12/12 03:58:19;;;;;;;;;;;;;;;14.54;62.41;101477.25;1058397;28;613;-64
2021/12/12 03:59:10;;;;;;;;;;;;;;;14.52;62.71;101479.16;1058578;28;812;-64
2021/12/12 04:00:00;;;;;;;;;;;;;;;14.48;61.72;101469.66;1057381;28;1988;-65
2021/12/12 04:00:50;;;;;;;;;;;;;;;14.48;62.50;101477.69;1057346;28;672;-64
2021/12/12 04:01:41;;;;;;;;;;;;;;;14.48;62.47;101478.56;1057340;28;645;-65
2021/12/12 04:02:32;;;;;;;;;;;;;;;14.48;62.11;101473.19;1057402;28;645;-65
2021/12/12 04:03:22;;;;;;;;;;;;;;;14.50;62.51;101481.13;1056960;28;754;-65
2021/12/12 04:04:12;;;;;;;;;;;;;;;14.50;62.29;101473.09;1057179;28;664;-64
2021/12/12 04:05:03;;;;;;;;;;;;;;;14.50;61.88;101475.78;1057310;28;1047;-65
2021/12/12 04:05:53;;;;;;;;;;;;;;;14.49;62.11;101474.06;1056387;28;905;-65
2021/12/12 04:06:44;;;;;;;;;;;;;;;14.47;62.70;101474.16;1058113;28;680;-65
2021/12/12 04:07:34;;;;;;;;;;;;;;;14.47;61.88;101478.66;1058426;28;774;-65
2021/12/12 04:08:24;;;;;;;;;;;;;;;14.46;62.35;101472.44;1056774;28;1844;-65
2021/12/12 04:09:15;;;;;;;;;;;;;;;14.47;62.54;101468.78;1053193;28;665;-65
2021/12/12 04:10:05;;;;;;;;;;;;;;;14.47;62.28;101466.13;1052795;28;633;-65
2021/12/12 04:10:56;;;;;;;;;;;;;;;14.47;62.40;101470.63;1053006;28;787;-65
2021/12/12 04:11:46;;;;;;;;;;;;;;;14.46;62.20;101468.91;1053218;28;821;-65
2021/12/12 04:12:36;;;;;;;;;;;;;;;14.47;62.06;101467.94;1053456;28;683;-65
2021/12/12 04:13:27;;;;;;;;;;;;;;;14.47;62.04;101466.13;1053361;28;640;-65
2021/12/12 04:14:17;;;;;;;;;;;;;;;14.46;61.85;101467.06;1052987;28;613;-65
2021/12/12 04:15:08;;;;;;;;;;;;;;;14.46;62.13;101456.34;1053121;28;637;-65
2021/12/12 04:15:58;;;;;;;;;;;;;;;14.47;61.87;101466.13;1053443;28;658;-65
2021/12/12 04:16:49;;;;;;;;;;;;;;;14.46;62.08;101458.19;1053068;28;669;-65
2021/12/12 04:17:39;;;;;;;;;;;;;;;14.44;62.50;101457.41;1052844;28;623;-65
2021/12/12 04:18:29;;;;;;;;;;;;;;;14.45;62.33;101459.13;1053056;28;1830;-65
2021/12/12 04:19:20;;;;;;;;;;;;;;;14.43;62.44;101461.94;1057244;28;747;-65
2021/12/12 04:20:10;;;;;;;;;;;;;;;14.42;61.94;101448.63;1056910;28;995;-65
2021/12/12 04:21:01;;;;;;;;;;;;;;;14.40;62.16;101455.88;1052665;28;710;-65
2021/12/12 04:21:51;;;;;;;;;;;;;;;14.39;61.88;101456.84;1052134;28;758;-65
2021/12/12 04:22:41;;;;;;;;;;;;;;;14.39;62.26;101462.22;1052464;28;676;-65
2021/12/12 04:23:32;;;;;;;;;;;;;;;14.40;61.88;101459.47;1052683;28;1014;-65
2021/12/12 04:24:22;;;;;;;;;;;;;;;14.39;62.02;101463.06;1052611;28;856;-64
2021/12/12 04:25:13;;;;;;;;;;;;;;;14.40;62.31;101463.94;1057226;28;795;-65
2021/12/12 04:26:03;;;;;;;;;;;;;;;14.41;62.02;101466.53;1057495;28;935;-65
2021/12/12 04:26:53;;;;;;;;;;;;;;;14.42;62.30;101462.88;1057783;28;692;-63
2021/12/12 04:27:44;;;;;;;;;;;;;;;14.43;62.32;101463.75;1057881;28;658;-63
2021/12/12 04:28:34;;;;;;;;;;;;;;;14.44;61.83;101470.84;1056791;28;1675;-63
2021/12/12 04:29:27;;;;;;;;;;;;;;;14.44;62.13;101477.06;1053612;28;699;-64
2021/12/12 04:30:18;;;;;;;;;;;;;;;14.44;61.94;101470.84;1053420;28;836;-65
2021/12/12 04:31:08;;;;;;;;;;;;;;;14.43;62.47;101464.59;1048855;28;632;-66
2021/12/12 04:31:58;;;;;;;;;;;;;;;14.43;62.23;101464.59;1050665;28;1422;-64
2021/12/12 04:32:49;;;;;;;;;;;;;;;14.43;62.01;101463.75;1057784;28;691;-63
2021/12/12 04:33:39;;;;;;;;;;;;;;;14.41;61.97;101463.84;1057143;28;650;-63
2021/12/12 04:34:31;;;;;;;;;;;;;;;14.41;61.70;101465.69;1057203;28;752;-63
2021/12/12 04:35:21;;;;;;;;;;;;;;;14.40;61.95;101459.47;1057039;28;763;-63
2021/12/12 04:36:12;;;;;;;;;;;;;;;14.41;62.37;101466.53;1057239;28;683;-63
2021/12/12 04:37:03;;;;;;;;;;;;;;;14.41;61.97;101463.00;1056914;28;685;-63
2021/12/12 04:37:54;;;;;;;;;;;;;;;14.41;61.78;101463.00;1057169;28;750;-62
2021/12/12 04:38:44;;;;;;;;;;;;;;;14.42;62.39;101462.03;1053413;28;769;-62
2021/12/12 04:39:34;;;;;;;;;;;;;;;14.41;61.93;101461.19;1054010;28;641;-62
2021/12/12 04:40:25;;;;;;;;;;;;;;;14.42;62.14;101468.25;1056681;28;2014;-62